Decoded Metar for NZAA (AUCKLAND in NEW ZEALAND) (IATA:AKL) | Meteo·Mobile Aviation Weather
aviador You're here:

NZAA Decoded Metar

AUCKLAND in NEW ZEALAND
Report Time2018-10-20 12:30:00
UTC Time2018-10-20 13:10:02
Flight Rules vfr VFR
Wind040° at 01 kt
W.Decomp.*RWY 05: 0.9 kt HW 0.5 kt LCW
W.Rank040° ranks 9
Current wind is below 040° avg. (8.0)
Visibility9999 m
Phenomena:N/A
Clouds:Overcast 047 Hf
Expected CloudBase > 400 ft AGL from Temp-Dew spread
Ceiling4,700 ft
Temp14°C (ISA -1)
Dew Point13°C (94% RH)
QNH1027 hPa
Density Alt-367 ft
Elevation20 ft
Report Wrong Elevation
Raw Report
NZAA 201230Z AUTO 04001KT 9999 OVC047/// 14/13 Q1027 NOSIG=

Extra information for NZAA:More info

Metar Taf Metar & Taf Last 4 Metars F.Rules Stats Wind Profile Meteogram Temp Stats Airport Information Weather charts Add Link Nearby VenuesMetar ALERT Operation Metar Decoded Social comments